Terminal Aerodrome Forecast
Issued by NWS

Home | Current Version | Previous Version | Text Only | Print | Product List | Glossary On
Versions: 1 2 3 4 5 6 7 8 9 10 11 12 13 14 15 16 17 18 19 20 21 22 23 24
000
FTUS41 KBGM 251700
TAFRME
TAF
KRME 251731Z 2518/2618 29011KT P6SM SKC
     FM252300 VRB05KT P6SM SCT200
     FM261000 10003KT P6SM BKN100
     FM261500 10007KT P6SM OVC040=

USA.gov is the U.S. government's official web portal to all federal, state and local government web resources and services.